sensor_id;sensor_type;location;lat;lon;timestamp;pressure;altitude;pressure_sealevel;temperature;humidity
54122;BME280;40029;58.708;50.190;2022-09-03T00:01:50;99448.34;;;12.82;49.27
54122;BME280;40029;58.708;50.190;2022-09-03T00:04:41;99451.97;;;12.80;49.92
54122;BME280;40029;58.708;50.190;2022-09-03T00:07:25;99462.19;;;12.84;49.68
54122;BME280;40029;58.708;50.190;2022-09-03T00:10:04;99458.50;;;12.88;49.70
54122;BME280;40029;58.708;50.190;2022-09-03T00:12:39;99459.59;;;12.84;49.98
54122;BME280;40029;58.708;50.190;2022-09-03T00:15:19;99453.38;;;12.69;50.42
54122;BME280;40029;58.708;50.190;2022-09-03T00:17:54;99457.25;;;12.78;50.29
54122;BME280;40029;58.708;50.190;2022-09-03T00:20:30;99458.13;;;12.79;50.35
54122;BME280;40029;58.708;50.190;2022-09-03T00:23:05;99461.66;;;12.77;50.51
54122;BME280;40029;58.708;50.190;2022-09-03T00:25:53;99459.34;;;12.89;49.71
54122;BME280;40029;58.708;50.190;2022-09-03T00:28:29;99461.16;;;12.87;49.59
54122;BME280;40029;58.708;50.190;2022-09-03T00:31:13;99462.94;;;12.86;49.95
54122;BME280;40029;58.708;50.190;2022-09-03T00:33:48;99424.50;;;12.55;50.29
54122;BME280;40029;58.708;50.190;2022-09-03T00:36:30;99462.75;;;12.73;51.15
54122;BME280;40029;58.708;50.190;2022-09-03T00:39:03;99467.91;;;12.75;50.64
54122;BME280;40029;58.708;50.190;2022-09-03T00:41:45;99446.81;;;12.78;50.44
54122;BME280;40029;58.708;50.190;2022-09-03T00:47:48;99450.97;;;12.82;50.31
54122;BME280;40029;58.708;50.190;2022-09-03T00:53:00;99453.50;;;12.84;50.38
54122;BME280;40029;58.708;50.190;2022-09-03T00:58:42;99461.59;;;12.79;50.42
54122;BME280;40029;58.708;50.190;2022-09-03T01:01:48;99464.22;;;12.79;50.24
54122;BME280;40029;58.708;50.190;2022-09-03T01:04:58;99467.13;;;12.73;50.56
54122;BME280;40029;58.708;50.190;2022-09-03T01:13:26;99398.47;;;12.19;50.70
54122;BME280;40029;58.708;50.190;2022-09-03T01:18:58;99465.81;;;12.64;50.31
54122;BME280;40029;58.708;50.190;2022-09-03T01:30:18;99473.63;;;12.66;50.62
54122;BME280;40029;58.708;50.190;2022-09-03T01:38:29;99475.56;;;12.78;50.09
54122;BME280;40029;58.708;50.190;2022-09-03T01:44:08;99480.56;;;12.83;49.86
54122;BME280;40029;58.708;50.190;2022-09-03T01:46:44;99474.81;;;12.76;50.13
54122;BME280;40029;58.708;50.190;2022-09-03T01:49:24;99484.13;;;12.64;50.41
54122;BME280;40029;58.708;50.190;2022-09-03T01:55:31;99478.38;;;12.75;49.95
54122;BME280;40029;58.708;50.190;2022-09-03T01:58:20;99477.44;;;12.76;49.88
54122;BME280;40029;58.708;50.190;2022-09-03T02:01:00;99477.34;;;12.77;49.94
54122;BME280;40029;58.708;50.190;2022-09-03T02:03:37;99488.50;;;12.81;49.94
54122;BME280;40029;58.708;50.190;2022-09-03T02:06:10;99486.22;;;12.75;50.19
54122;BME280;40029;58.708;50.190;2022-09-03T02:08:41;99489.03;;;12.88;49.54
54122;BME280;40029;58.708;50.190;2022-09-03T02:11:12;99486.13;;;12.76;50.37
54122;BME280;40029;58.708;50.190;2022-09-03T02:13:46;99488.75;;;12.59;50.82
54122;BME280;40029;58.708;50.190;2022-09-03T02:16:26;99487.53;;;12.66;51.14
54122;BME280;40029;58.708;50.190;2022-09-03T02:19:03;99501.09;;;12.73;51.53
54122;BME280;40029;58.708;50.190;2022-09-03T02:21:38;99498.44;;;12.74;51.77
54122;BME280;40029;58.708;50.190;2022-09-03T02:24:10;99501.94;;;12.73;51.54
54122;BME280;40029;58.708;50.190;2022-09-03T02:26:41;99500.03;;;12.77;51.65
54122;BME280;40029;58.708;50.190;2022-09-03T02:29:14;99500.97;;;12.76;52.08
54122;BME280;40029;58.708;50.190;2022-09-03T02:31:46;99501.81;;;12.76;52.42
54122;BME280;40029;58.708;50.190;2022-09-03T02:34:17;99495.97;;;12.71;51.89
54122;BME280;40029;58.708;50.190;2022-09-03T02:36:48;99499.19;;;12.76;51.80
54122;BME280;40029;58.708;50.190;2022-09-03T02:39:19;99502.28;;;12.67;52.61
54122;BME280;40029;58.708;50.190;2022-09-03T02:41:54;99504.41;;;12.76;52.36
54122;BME280;40029;58.708;50.190;2022-09-03T02:44:30;99509.94;;;12.88;52.11
54122;BME280;40029;58.708;50.190;2022-09-03T02:47:06;99505.31;;;12.93;52.12
54122;BME280;40029;58.708;50.190;2022-09-03T02:49:37;99511.47;;;12.92;51.53
54122;BME280;40029;58.708;50.190;2022-09-03T02:52:09;99509.72;;;12.92;52.28
54122;BME280;40029;58.708;50.190;2022-09-03T02:54:41;99519.94;;;12.97;50.99
54122;BME280;40029;58.708;50.190;2022-09-03T02:57:16;99514.00;;;12.93;50.98
54122;BME280;40029;58.708;50.190;2022-09-03T02:59:47;99522.25;;;12.86;51.28
54122;BME280;40029;58.708;50.190;2022-09-03T03:02:18;99532.00;;;12.82;51.18
54122;BME280;40029;58.708;50.190;2022-09-03T03:04:49;99523.09;;;12.86;51.63
54122;BME280;40029;58.708;50.190;2022-09-03T03:07:20;99525.47;;;12.91;51.23
54122;BME280;40029;58.708;50.190;2022-09-03T03:09:51;99527.19;;;12.92;51.04
54122;BME280;40029;58.708;50.190;2022-09-03T03:12:22;99529.00;;;12.90;50.85
54122;BME280;40029;58.708;50.190;2022-09-03T03:14:53;99538.09;;;13.00;50.54
54122;BME280;40029;58.708;50.190;2022-09-03T03:17:24;99545.50;;;13.08;50.12
54122;BME280;40029;58.708;50.190;2022-09-03T03:19:55;99539.81;;;12.99;50.64
54122;BME280;40029;58.708;50.190;2022-09-03T03:22:26;99535.28;;;13.03;49.86
54122;BME280;40029;58.708;50.190;2022-09-03T03:24:57;99540.53;;;13.03;49.90
54122;BME280;40029;58.708;50.190;2022-09-03T03:27:28;99537.59;;;13.09;49.34
54122;BME280;40029;58.708;50.190;2022-09-03T03:29:59;99548.22;;;13.06;50.19
54122;BME280;40029;58.708;50.190;2022-09-03T03:32:30;99544.44;;;13.12;49.59
54122;BME280;40029;58.708;50.190;2022-09-03T03:35:02;99540.69;;;13.00;49.30
54122;BME280;40029;58.708;50.190;2022-09-03T03:37:34;99543.22;;;13.01;48.38
54122;BME280;40029;58.708;50.190;2022-09-03T03:40:06;99541.69;;;12.97;48.47
54122;BME280;40029;58.708;50.190;2022-09-03T03:42:37;99515.63;;;12.96;48.04
54122;BME280;40029;58.708;50.190;2022-09-03T03:45:09;99541.16;;;13.25;47.80
54122;BME280;40029;58.708;50.190;2022-09-03T03:47:40;99552.47;;;13.26;47.49
54122;BME280;40029;58.708;50.190;2022-09-03T03:50:11;99552.03;;;13.34;47.25
54122;BME280;40029;58.708;50.190;2022-09-03T03:52:42;99560.06;;;13.31;47.19
54122;BME280;40029;58.708;50.190;2022-09-03T03:55:13;99565.44;;;13.28;46.83
54122;BME280;40029;58.708;50.190;2022-09-03T03:57:44;99563.28;;;13.36;46.78
54122;BME280;40029;58.708;50.190;2022-09-03T04:00:16;99564.72;;;13.41;46.58
54122;BME280;40029;58.708;50.190;2022-09-03T04:02:47;99568.03;;;13.45;46.16
54122;BME280;40029;58.708;50.190;2022-09-03T04:05:18;99574.63;;;13.52;46.32
54122;BME280;40029;58.708;50.190;2022-09-03T04:07:49;99572.94;;;13.51;46.15
54122;BME280;40029;58.708;50.190;2022-09-03T04:10:20;99578.19;;;13.51;45.71
54122;BME280;40029;58.708;50.190;2022-09-03T04:12:53;99577.09;;;13.55;46.14
54122;BME280;40029;58.708;50.190;2022-09-03T04:15:24;99579.88;;;13.52;45.55
54122;BME280;40029;58.708;50.190;2022-09-03T04:17:55;99576.56;;;13.48;45.55
54122;BME280;40029;58.708;50.190;2022-09-03T04:20:26;99531.78;;;13.20;45.58
54122;BME280;40029;58.708;50.190;2022-09-03T04:23:00;99597.63;;;13.30;45.26
54122;BME280;40029;58.708;50.190;2022-09-03T04:25:32;99572.41;;;13.44;44.64
54122;BME280;40029;58.708;50.190;2022-09-03T04:28:03;99586.81;;;13.85;43.48
54122;BME280;40029;58.708;50.190;2022-09-03T04:30:36;99590.69;;;13.62;43.71
54122;BME280;40029;58.708;50.190;2022-09-03T04:33:07;99600.66;;;13.55;44.78
54122;BME280;40029;58.708;50.190;2022-09-03T04:35:38;99605.09;;;13.53;44.72
54122;BME280;40029;58.708;50.190;2022-09-03T04:38:10;99598.72;;;13.41;44.51
54122;BME280;40029;58.708;50.190;2022-09-03T04:40:42;99605.88;;;13.20;44.94
54122;BME280;40029;58.708;50.190;2022-09-03T04:43:13;99600.25;;;13.30;44.53
54122;BME280;40029;58.708;50.190;2022-09-03T04:45:44;99605.69;;;13.42;44.82
54122;BME280;40029;58.708;50.190;2022-09-03T04:48:15;99606.19;;;13.49;44.71
54122;BME280;40029;58.708;50.190;2022-09-03T04:50:46;99604.75;;;13.59;44.91
54122;BME280;40029;58.708;50.190;2022-09-03T04:53:17;99613.41;;;13.61;44.82
54122;BME280;40029;58.708;50.190;2022-09-03T04:55:48;99611.97;;;13.71;44.44
54122;BME280;40029;58.708;50.190;2022-09-03T04:58:19;99616.81;;;13.79;44.44
54122;BME280;40029;58.708;50.190;2022-09-03T05:00:50;99616.38;;;13.71;44.39
54122;BME280;40029;58.708;50.190;2022-09-03T05:03:21;99626.44;;;13.79;44.19
54122;BME280;40029;58.708;50.190;2022-09-03T05:05:56;99627.22;;;13.81;44.30
54122;BME280;40029;58.708;50.190;2022-09-03T05:08:27;99630.00;;;13.78;44.17
54122;BME280;40029;58.708;50.190;2022-09-03T05:10:59;99626.97;;;13.85;43.55
54122;BME280;40029;58.708;50.190;2022-09-03T05:13:31;99625.53;;;13.95;43.40
54122;BME280;40029;58.708;50.190;2022-09-03T05:16:08;99640.72;;;13.89;43.34
54122;BME280;40029;58.708;50.190;2022-09-03T05:18:40;99634.63;;;13.72;43.63
54122;BME280;40029;58.708;50.190;2022-09-03T05:21:13;99651.50;;;13.67;43.90
54122;BME280;40029;58.708;50.190;2022-09-03T05:23:47;99647.88;;;13.69;43.61
54122;BME280;40029;58.708;50.190;2022-09-03T05:26:24;99648.81;;;13.84;43.56
54122;BME280;40029;58.708;50.190;2022-09-03T05:29:00;99644.44;;;13.85;42.88
54122;BME280;40029;58.708;50.190;2022-09-03T05:31:33;99651.88;;;13.92;42.44
54122;BME280;40029;58.708;50.190;2022-09-03T05:34:06;99649.78;;;13.99;41.90
54122;BME280;40029;58.708;50.190;2022-09-03T05:36:37;99653.59;;;13.93;42.17
54122;BME280;40029;58.708;50.190;2022-09-03T05:39:08;99663.59;;;13.69;43.04
54122;BME280;40029;58.708;50.190;2022-09-03T05:41:39;99664.28;;;13.89;42.81
54122;BME280;40029;58.708;50.190;2022-09-03T05:44:10;99644.22;;;13.72;43.04
54122;BME280;40029;58.708;50.190;2022-09-03T05:46:41;99661.59;;;13.90;43.06
54122;BME280;40029;58.708;50.190;2022-09-03T05:49:12;99660.03;;;14.04;42.41
54122;BME280;40029;58.708;50.190;2022-09-03T05:51:44;99665.94;;;14.07;41.82
54122;BME280;40029;58.708;50.190;2022-09-03T05:54:15;99670.31;;;13.91;42.17
54122;BME280;40029;58.708;50.190;2022-09-03T05:56:46;99671.88;;;13.78;42.35
54122;BME280;40029;58.708;50.190;2022-09-03T05:59:17;99684.81;;;13.81;41.75
54122;BME280;40029;58.708;50.190;2022-09-03T06:01:49;99671.09;;;13.60;41.00
54122;BME280;40029;58.708;50.190;2022-09-03T06:04:20;99686.47;;;13.48;40.91
54122;BME280;40029;58.708;50.190;2022-09-03T06:06:51;99683.75;;;13.67;40.97
54122;BME280;40029;58.708;50.190;2022-09-03T06:09:22;99685.97;;;13.75;40.86
54122;BME280;40029;58.708;50.190;2022-09-03T06:11:53;99648.06;;;13.49;40.62
54122;BME280;40029;58.708;50.190;2022-09-03T06:14:24;99698.91;;;13.78;40.41
54122;BME280;40029;58.708;50.190;2022-09-03T06:16:55;99691.78;;;13.97;39.76
54122;BME280;40029;58.708;50.190;2022-09-03T06:19:26;99694.63;;;13.93;39.45
54122;BME280;40029;58.708;50.190;2022-09-03T06:21:57;99697.19;;;13.94;38.99
54122;BME280;40029;58.708;50.190;2022-09-03T06:24:28;99700.94;;;14.22;38.69
54122;BME280;40029;58.708;50.190;2022-09-03T06:26:59;99709.38;;;14.11;37.26
54122;BME280;40029;58.708;50.190;2022-09-03T06:29:31;99712.75;;;14.13;37.07
54122;BME280;40029;58.708;50.190;2022-09-03T06:32:02;99700.75;;;13.93;35.31
54122;BME280;40029;58.708;50.190;2022-09-03T06:34:34;99712.22;;;13.91;35.49
54122;BME280;40029;58.708;50.190;2022-09-03T06:37:05;99710.13;;;14.13;34.56
54122;BME280;40029;58.708;50.190;2022-09-03T06:39:36;99716.50;;;14.25;34.03
54122;BME280;40029;58.708;50.190;2022-09-03T06:42:07;99663.72;;;13.99;33.09
54122;BME280;40029;58.708;50.190;2022-09-03T06:44:40;99704.94;;;14.45;32.53
54122;BME280;40029;58.708;50.190;2022-09-03T06:47:12;99711.13;;;14.75;32.52
54122;BME280;40029;58.708;50.190;2022-09-03T06:49:43;99654.97;;;14.32;32.52
54122;BME280;40029;58.708;50.190;2022-09-03T06:52:14;99710.03;;;14.64;32.21
54122;BME280;40029;58.708;50.190;2022-09-03T06:54:45;99718.75;;;14.64;32.38
54122;BME280;40029;58.708;50.190;2022-09-03T06:57:16;99713.59;;;14.79;32.05
54122;BME280;40029;58.708;50.190;2022-09-03T06:59:47;99723.19;;;14.94;32.15
54122;BME280;40029;58.708;50.190;2022-09-03T07:02:19;99715.13;;;14.83;32.31
54122;BME280;40029;58.708;50.190;2022-09-03T07:04:52;99719.06;;;14.90;32.46
54122;BME280;40029;58.708;50.190;2022-09-03T07:07:23;99726.81;;;15.07;32.02
54122;BME280;40029;58.708;50.190;2022-09-03T07:09:54;99729.50;;;14.75;32.01
54122;BME280;40029;58.708;50.190;2022-09-03T07:12:25;99698.91;;;14.43;32.60
54122;BME280;40029;58.708;50.190;2022-09-03T07:14:56;99740.31;;;14.69;32.69
54122;BME280;40029;58.708;50.190;2022-09-03T07:17:28;99735.25;;;14.50;33.31
54122;BME280;40029;58.708;50.190;2022-09-03T07:19:59;99748.25;;;14.52;33.41
54122;BME280;40029;58.708;50.190;2022-09-03T07:22:30;99732.94;;;14.60;33.63
54122;BME280;40029;58.708;50.190;2022-09-03T07:25:01;99754.47;;;14.83;33.52
54122;BME280;40029;58.708;50.190;2022-09-03T07:27:34;99747.75;;;14.93;33.06
54122;BME280;40029;58.708;50.190;2022-09-03T07:30:05;99738.34;;;15.05;32.67
54122;BME280;40029;58.708;50.190;2022-09-03T07:32:39;99755.00;;;15.04;32.54
54122;BME280;40029;58.708;50.190;2022-09-03T07:35:10;99751.22;;;15.09;31.86
54122;BME280;40029;58.708;50.190;2022-09-03T07:37:42;99708.84;;;14.85;31.71
54122;BME280;40029;58.708;50.190;2022-09-03T07:40:13;99755.47;;;14.96;31.53
54122;BME280;40029;58.708;50.190;2022-09-03T07:42:46;99724.19;;;15.07;31.51
54122;BME280;40029;58.708;50.190;2022-09-03T07:45:17;99740.34;;;15.15;31.30
54122;BME280;40029;58.708;50.190;2022-09-03T07:47:48;99760.69;;;15.42;30.84
54122;BME280;40029;58.708;50.190;2022-09-03T07:50:20;99747.13;;;15.04;30.85
54122;BME280;40029;58.708;50.190;2022-09-03T07:52:57;99772.25;;;15.23;30.69
54122;BME280;40029;58.708;50.190;2022-09-03T07:55:28;99775.41;;;15.14;30.50
54122;BME280;40029;58.708;50.190;2022-09-03T07:57:59;99756.72;;;15.05;30.39
54122;BME280;40029;58.708;50.190;2022-09-03T08:00:30;99768.53;;;15.12;30.52
54122;BME280;40029;58.708;50.190;2022-09-03T08:03:03;99753.25;;;15.04;30.72
54122;BME280;40029;58.708;50.190;2022-09-03T08:05:38;99783.84;;;15.19;31.19
54122;BME280;40029;58.708;50.190;2022-09-03T08:08:09;99780.50;;;15.17;31.40
54122;BME280;40029;58.708;50.190;2022-09-03T08:10:40;99787.16;;;15.07;31.78
54122;BME280;40029;58.708;50.190;2022-09-03T08:13:11;99801.28;;;15.20;32.12
54122;BME280;40029;58.708;50.190;2022-09-03T08:15:42;99783.13;;;15.17;32.25
54122;BME280;40029;58.708;50.190;2022-09-03T08:18:13;99794.06;;;15.40;32.53
54122;BME280;40029;58.708;50.190;2022-09-03T08:20:45;99801.41;;;15.49;32.11
54122;BME280;40029;58.708;50.190;2022-09-03T08:23:16;99792.59;;;15.50;32.19
54122;BME280;40029;58.708;50.190;2022-09-03T08:25:47;99794.78;;;15.58;32.08
54122;BME280;40029;58.708;50.190;2022-09-03T08:28:18;99799.41;;;15.38;32.74
54122;BME280;40029;58.708;50.190;2022-09-03T08:30:49;99809.66;;;15.43;33.29
54122;BME280;40029;58.708;50.190;2022-09-03T08:33:21;99803.31;;;15.31;33.41
54122;BME280;40029;58.708;50.190;2022-09-03T08:36:17;99824.16;;;15.03;35.04
54122;BME280;40029;58.708;50.190;2022-09-03T08:38:49;99826.03;;;15.00;34.89
54122;BME280;40029;58.708;50.190;2022-09-03T08:41:32;99841.78;;;15.00;35.33
54122;BME280;40029;58.708;50.190;2022-09-03T08:47:43;99843.97;;;14.92;35.13
54122;BME280;40029;58.708;50.190;2022-09-03T08:50:25;99846.84;;;15.04;33.76
54122;BME280;40029;58.708;50.190;2022-09-03T08:53:02;99839.41;;;15.12;33.71
54122;BME280;40029;58.708;50.190;2022-09-03T08:55:49;99839.06;;;15.34;33.28
54122;BME280;40029;58.708;50.190;2022-09-03T08:58:29;99837.22;;;15.50;33.03
54122;BME280;40029;58.708;50.190;2022-09-03T09:06:27;99832.38;;;15.74;30.92
54122;BME280;40029;58.708;50.190;2022-09-03T09:09:58;99831.66;;;15.72;30.27
54122;BME280;40029;58.708;50.190;2022-09-03T09:15:47;99825.44;;;16.03;31.14
54122;BME280;40029;58.708;50.190;2022-09-03T09:21:58;99850.38;;;15.96;30.11
54122;BME280;40029;58.708;50.190;2022-09-03T09:24:51;99857.13;;;15.70;31.24
54122;BME280;40029;58.708;50.190;2022-09-03T09:27:23;99860.53;;;15.72;32.82
54122;BME280;40029;58.708;50.190;2022-09-03T09:29:56;99874.19;;;15.47;33.55
54122;BME280;40029;58.708;50.190;2022-09-03T09:32:31;99837.88;;;15.39;34.34
54122;BME280;40029;58.708;50.190;2022-09-03T09:35:08;99854.63;;;15.68;33.68
54122;BME280;40029;58.708;50.190;2022-09-03T09:37:57;99864.28;;;15.52;34.61
54122;BME280;40029;58.708;50.190;2022-09-03T09:40:36;99884.94;;;15.27;35.92
54122;BME280;40029;58.708;50.190;2022-09-03T09:43:17;99888.00;;;14.37;39.39
54122;BME280;40029;58.708;50.190;2022-09-03T09:45:52;99903.88;;;13.99;41.92
54122;BME280;40029;58.708;50.190;2022-09-03T09:48:30;99914.16;;;13.67;44.13
54122;BME280;40029;58.708;50.190;2022-09-03T09:51:19;99918.16;;;13.19;46.42
54122;BME280;40029;58.708;50.190;2022-09-03T09:56:30;99915.44;;;13.22;45.55
54122;BME280;40029;58.708;50.190;2022-09-03T09:59:06;99876.94;;;13.06;47.05
54122;BME280;40029;58.708;50.190;2022-09-03T10:01:40;99905.16;;;13.37;47.48
54122;BME280;40029;58.708;50.190;2022-09-03T10:04:21;99891.41;;;13.50;46.99
54122;BME280;40029;58.708;50.190;2022-09-03T10:07:31;99895.28;;;13.61;48.55
54122;BME280;40029;58.708;50.190;2022-09-03T10:13:01;99899.88;;;14.09;47.72
54122;BME280;40029;58.708;50.190;2022-09-03T10:15:44;99922.22;;;14.16;46.83
54122;BME280;40029;58.708;50.190;2022-09-03T10:18:41;99915.56;;;13.92;45.72
54122;BME280;40029;58.708;50.190;2022-09-03T10:21:23;99918.91;;;13.95;46.49
54122;BME280;40029;58.708;50.190;2022-09-03T10:27:09;99886.66;;;13.59;44.91
54122;BME280;40029;58.708;50.190;2022-09-03T10:29:43;99913.41;;;13.83;44.50
54122;BME280;40029;58.708;50.190;2022-09-03T10:35:15;99916.19;;;14.14;43.16
54122;BME280;40029;58.708;50.190;2022-09-03T10:46:18;99923.16;;;14.33;40.20
54122;BME280;40029;58.708;50.190;2022-09-03T10:50:12;99923.88;;;14.69;39.85
54122;BME280;40029;58.708;50.190;2022-09-03T11:01:59;99925.34;;;15.24;35.70
54122;BME280;40029;58.708;50.190;2022-09-03T11:06:53;99924.00;;;15.17;34.22
54122;BME280;40029;58.708;50.190;2022-09-03T11:12:23;99932.78;;;15.32;33.95
54122;BME280;40029;58.708;50.190;2022-09-03T11:20:39;99921.13;;;15.69;33.41
54122;BME280;40029;58.708;50.190;2022-09-03T11:23:12;99928.88;;;15.86;33.16
54122;BME280;40029;58.708;50.190;2022-09-03T11:26:06;99930.41;;;15.90;31.07
54122;BME280;40029;58.708;50.190;2022-09-03T11:37:27;99939.94;;;16.07;31.48
54122;BME280;40029;58.708;50.190;2022-09-03T11:40:11;99922.00;;;15.99;30.93
54122;BME280;40029;58.708;50.190;2022-09-03T11:42:43;99928.63;;;16.21;31.37
54122;BME280;40029;58.708;50.190;2022-09-03T11:48:01;99937.16;;;16.55;31.61
54122;BME280;40029;58.708;50.190;2022-09-03T11:50:33;99933.16;;;16.78;30.93
54122;BME280;40029;58.708;50.190;2022-09-03T11:53:25;99929.28;;;16.97;30.06
54122;BME280;40029;58.708;50.190;2022-09-03T11:58:36;99942.94;;;16.76;30.32
54122;BME280;40029;58.708;50.190;2022-09-03T12:01:12;99949.97;;;16.89;30.38
54122;BME280;40029;58.708;50.190;2022-09-03T12:03:52;99910.50;;;16.75;31.05
54122;BME280;40029;58.708;50.190;2022-09-03T12:06:54;99953.00;;;16.97;29.00
54122;BME280;40029;58.708;50.190;2022-09-03T12:18:12;99955.91;;;16.93;30.02
54122;BME280;40029;58.708;50.190;2022-09-03T12:23:29;99960.66;;;16.72;31.43
54122;BME280;40029;58.708;50.190;2022-09-03T12:26:05;99960.25;;;16.49;31.73
54122;BME280;40029;58.708;50.190;2022-09-03T12:28:37;99958.34;;;16.37;32.05
54122;BME280;40029;58.708;50.190;2022-09-03T12:31:21;99885.44;;;16.11;32.47
54122;BME280;40029;58.708;50.190;2022-09-03T12:34:11;99953.03;;;16.53;32.87
54122;BME280;40029;58.708;50.190;2022-09-03T12:36:45;99964.22;;;16.27;33.42
54122;BME280;40029;58.708;50.190;2022-09-03T12:39:23;99986.31;;;16.08;34.97
54122;BME280;40029;58.708;50.190;2022-09-03T12:42:06;99976.06;;;15.40;39.50
54122;BME280;40029;58.708;50.190;2022-09-03T12:44:39;99969.50;;;14.49;40.98
54122;BME280;40029;58.708;50.190;2022-09-03T12:47:14;99972.63;;;14.04;43.50
54122;BME280;40029;58.708;50.190;2022-09-03T12:49:47;99993.44;;;14.07;47.06
54122;BME280;40029;58.708;50.190;2022-09-03T12:52:20;99998.22;;;13.80;46.21
54122;BME280;40029;58.708;50.190;2022-09-03T12:57:30;99977.28;;;15.02;45.92
54122;BME280;40029;58.708;50.190;2022-09-03T13:00:06;99971.22;;;15.33;43.44
54122;BME280;40029;58.708;50.190;2022-09-03T13:05:20;99928.63;;;15.91;41.96
54122;BME280;40029;58.708;50.190;2022-09-03T13:07:53;99980.25;;;16.22;41.96
54122;BME280;40029;58.708;50.190;2022-09-03T13:10:29;99979.19;;;15.63;42.54
54122;BME280;40029;58.708;50.190;2022-09-03T13:13:26;99977.25;;;15.35;43.02
54122;BME280;40029;58.708;50.190;2022-09-03T13:18:43;99984.41;;;15.15;43.64
54122;BME280;40029;58.708;50.190;2022-09-03T13:37:55;99963.47;;;15.47;46.27
54122;BME280;40029;58.708;50.190;2022-09-03T13:40:36;99961.69;;;15.95;45.55
54122;BME280;40029;58.708;50.190;2022-09-03T13:43:29;99993.16;;;15.81;44.34
54122;BME280;40029;58.708;50.190;2022-09-03T13:46:06;99994.06;;;15.80;44.54
54122;BME280;40029;58.708;50.190;2022-09-03T13:48:42;99977.19;;;15.52;44.57
54122;BME280;40029;58.708;50.190;2022-09-03T13:51:42;99994.47;;;15.56;44.49
54122;BME280;40029;58.708;50.190;2022-09-03T13:54:44;99996.09;;;15.90;43.01
54122;BME280;40029;58.708;50.190;2022-09-03T13:57:25;99994.91;;;16.26;43.35
54122;BME280;40029;58.708;50.190;2022-09-03T14:00:05;99991.00;;;16.63;42.42
54122;BME280;40029;58.708;50.190;2022-09-03T14:12:02;100003.75;;;15.46;42.90
54122;BME280;40029;58.708;50.190;2022-09-03T14:14:54;100001.13;;;15.30;43.27
54122;BME280;40029;58.708;50.190;2022-09-03T14:17:31;100000.59;;;15.23;43.62
54122;BME280;40029;58.708;50.190;2022-09-03T14:20:17;100004.66;;;15.13;43.97
54122;BME280;40029;58.708;50.190;2022-09-03T14:25:54;100006.28;;;14.83;44.48
54122;BME280;40029;58.708;50.190;2022-09-03T14:28:35;100004.78;;;14.77;44.86
54122;BME280;40029;58.708;50.190;2022-09-03T14:34:47;100008.88;;;14.65;46.47
54122;BME280;40029;58.708;50.190;2022-09-03T14:40:10;100004.22;;;14.18;46.35
54122;BME280;40029;58.708;50.190;2022-09-03T15:07:56;100042.19;;;14.10;43.88
54122;BME280;40029;58.708;50.190;2022-09-03T15:10:44;100014.63;;;13.84;43.81
54122;BME280;40029;58.708;50.190;2022-09-03T15:13:22;100035.59;;;13.84;43.99
54122;BME280;40029;58.708;50.190;2022-09-03T15:16:26;100035.53;;;13.85;43.67
54122;BME280;40029;58.708;50.190;2022-09-03T15:19:35;100026.78;;;13.85;44.39
54122;BME280;40029;58.708;50.190;2022-09-03T15:26:07;100034.03;;;13.80;44.47
54122;BME280;40029;58.708;50.190;2022-09-03T15:36:53;100036.63;;;13.42;46.10
54122;BME280;40029;58.708;50.190;2022-09-03T15:39:37;100044.50;;;13.42;46.23
54122;BME280;40029;58.708;50.190;2022-09-03T15:42:25;100009.22;;;13.11;46.63
54122;BME280;40029;58.708;50.190;2022-09-03T15:45:05;100044.41;;;13.24;46.83
54122;BME280;40029;58.708;50.190;2022-09-03T15:50:46;100046.69;;;13.12;47.63
54122;BME280;40029;58.708;50.190;2022-09-03T16:01:42;100044.22;;;12.88;48.49
54122;BME280;40029;58.708;50.190;2022-09-03T16:07:02;100055.41;;;12.92;48.38
54122;BME280;40029;58.708;50.190;2022-09-03T16:10:03;100054.69;;;12.88;49.67
54122;BME280;40029;58.708;50.190;2022-09-03T16:13:06;100055.00;;;12.81;49.20
54122;BME280;40029;58.708;50.190;2022-09-03T16:15:45;100048.00;;;12.61;49.29
54122;BME280;40029;58.708;50.190;2022-09-03T16:18:28;100064.53;;;12.61;48.68
54122;BME280;40029;58.708;50.190;2022-09-03T16:21:22;100062.84;;;12.60;49.25
54122;BME280;40029;58.708;50.190;2022-09-03T16:24:37;100055.91;;;12.59;49.21
54122;BME280;40029;58.708;50.190;2022-09-03T16:27:37;100060.41;;;12.56;48.94
54122;BME280;40029;58.708;50.190;2022-09-03T16:41:57;100059.28;;;12.19;49.76
54122;BME280;40029;58.708;50.190;2022-09-03T16:52:40;100057.91;;;12.10;50.34
54122;BME280;40029;58.708;50.190;2022-09-03T16:55:25;100068.59;;;12.04;49.88
54122;BME280;40029;58.708;50.190;2022-09-03T17:06:50;100060.03;;;12.00;48.89
54122;BME280;40029;58.708;50.190;2022-09-03T17:12:46;100068.78;;;11.99;49.89
54122;BME280;40029;58.708;50.190;2022-09-03T17:27:25;100038.81;;;11.63;49.65
54122;BME280;40029;58.708;50.190;2022-09-03T17:32:57;100071.47;;;11.98;49.21
54122;BME280;40029;58.708;50.190;2022-09-03T17:49:44;100079.13;;;12.03;49.08
54122;BME280;40029;58.708;50.190;2022-09-03T17:54:53;100078.19;;;12.04;49.29
54122;BME280;40029;58.708;50.190;2022-09-03T17:57:30;100043.16;;;11.87;48.78
54122;BME280;40029;58.708;50.190;2022-09-03T18:00:03;100077.53;;;11.98;49.33
54122;BME280;40029;58.708;50.190;2022-09-03T18:05:33;100071.03;;;12.09;48.82
54122;BME280;40029;58.708;50.190;2022-09-03T18:11:10;100075.28;;;12.11;47.99
54122;BME280;40029;58.708;50.190;2022-09-03T18:13:59;100078.75;;;12.12;47.57
54122;BME280;40029;58.708;50.190;2022-09-03T18:16:34;100073.91;;;12.03;47.89
54122;BME280;40029;58.708;50.190;2022-09-03T18:19:38;100083.25;;;12.08;47.30
54122;BME280;40029;58.708;50.190;2022-09-03T18:23:06;100078.75;;;11.90;47.16